Airfield :
LOGIN :

Register | Disclaimer

   EN    FR    IT 

 










Legend :    VFR   Marginal VFR   IFR   Intensive IFR   Very Intensive IFR
Visi :
Ceiling :
>= 8 km
>= 3000ft
5 to 8 km
1000 to 3000 ft
1500m to 5 km
500 to 1000 ft
800 to 1500m
200 to 500 ft
< 800m
< 200 ft
Symbols :   Thunderstorms  Fog  Heavy snow  Heavy precipitations  Wind > 20 kt
SIGMETs :     Misc.  Thunderstorms  Icing  Turbulence  Mountain Waves  Volcanic Ashes







- Airport Elevation : 466 ft


LHPA - Pápa

CURRENT METAR :
  • 200845Z 23008KT 9999 FEW017 BKN200 02/M00 Q1014 NOSIG RMK BLU

EXPIRED METARs :
  • 200815Z 23008KT 9999 FEW015 SCT083 01/M01 Q1014 NOSIG RMK BLU
  • 200745Z 23006KT CAVOK 01/M01 Q1013 NOSIG RMK BLU
  • 200715Z 21010KT 9999 FEW010 SCT060 BKN083 01/M01 Q1013 NOSIG RMK BLU
  • 200645Z 19010KT 9999 FEW010 SCT057 BKN083 01/M01 Q1013 TEMPO -SHSN RMK BLU
  • 200615Z 20010KT 9999 FEW010 SCT057 BKN083 01/M00 Q1013 TEMPO -SHSN RMK BLU

TAF TAF LHPA
Valid from the 20 at 06:00 until the 21 at 06:00 UTC


200515Z 2006/2106 20006KT CAVOK
PROB30
TEMPO 2006/2008 5000 BR NSC
TEMPO 2007/2012 6000 SHRASN SHSN SCT015 BKN030
TEMPO 2017/2106 18010G21KT
No reported NOTAMs for that airfield.



MET'MAP, your aeronautical weather chart ! - Copyright ORBIFLY December 2007 - Disclaimer

ORBIFLY MET'MAP TEAM :

Programming & Development : Alexandra Zaïnal
Concept & Development : Baudouin d'Aumeries
Co-Development & Prog : Marc-Olivier Méhu
Technical & hardware support : Manuel Goepfert

Contact : metmap@orbifly.com




SOURCES & CREDITS :

   NOAA